Time;durP1;ratioP1;P1;durP2;ratioP2;P2;SDS_P1;SDS_P2;PMS_P1;PMS_P2;Temp;Humidity;BMP_temperature;BMP_pressure;BME280_temperature;BME280_humidity;BME280_pressure;Samples;Min_cycle;Max_cycle;Signal;HPM_P1;HPM_P2
2021/04/17 00:01:55;;;;;;;11.70;1.83;;;4.70;99.90;;;;;;4992618;28;20133;-93
2021/04/17 00:04:21;;;;;;;10.93;2.45;;;4.80;99.90;;;;;;4990549;28;20054;-93
2021/04/17 00:06:48;;;;;;;7.65;1.85;;;4.80;99.90;;;;;;4975471;28;20050;-93
2021/04/17 00:09:19;;;;;;;13.07;1.77;;;4.70;99.90;;;;;;4978167;28;20474;-93
2021/04/17 00:11:46;;;;;;;;;;;4.80;99.90;;;;;;4994846;28;20074;-92
2021/04/17 00:14:19;;;;;;;7.57;2.05;;;4.70;99.90;;;;;;4994868;28;19968;-92
2021/04/17 00:16:46;;;;;;;7.45;1.75;;;4.80;99.90;;;;;;4982190;28;20069;-92
2021/04/17 00:19:12;;;;;;;7.60;1.83;;;4.70;99.90;;;;;;4993790;28;20490;-93
2021/04/17 00:21:40;;;;;;;8.90;1.83;;;4.80;99.90;;;;;;4963804;28;20065;-93
2021/04/17 00:24:07;;;;;;;6.18;2.15;;;4.70;99.90;;;;;;4966181;28;20059;-94
2021/04/17 00:26:42;;;;;;;6.45;1.77;;;4.80;99.90;;;;;;4963057;28;20053;-93
2021/04/17 00:29:13;;;;;;;8.30;1.75;;;4.80;99.90;;;;;;4957019;28;20050;-91
2021/04/17 00:35:01;;;;;;;10.07;1.63;;;4.70;99.90;;;;;;4989802;28;20046;-94
2021/04/17 00:37:27;;;;;;;8.57;2.05;;;4.60;99.90;;;;;;4991484;28;20062;-93
2021/04/17 00:39:52;;;;;;;9.70;1.88;;;4.80;99.90;;;;;;4996397;28;20045;-92
2021/04/17 00:42:18;;;;;;;10.18;2.35;;;4.90;99.90;;;;;;4995971;28;20505;-93
2021/04/17 00:44:44;;;;;;;9.82;1.70;;;4.90;99.90;;;;;;4979138;28;20073;-93
2021/04/17 00:47:10;;;;;;;4.35;1.42;;;4.80;99.90;;;;;;4996640;28;20057;-93
2021/04/17 00:49:37;;;;;;;8.30;2.10;;;4.70;99.90;;;;;;4976720;28;20105;-93
2021/04/17 00:52:06;;;;;;;5.88;1.85;;;5.10;99.90;;;;;;4996274;28;20383;-92
2021/04/17 00:54:45;;;;;;;8.85;1.80;;;4.90;99.90;;;;;;4980835;28;20050;-92
2021/04/17 00:57:10;;;;;;;3.45;1.73;;;4.90;99.90;;;;;;4993281;28;20053;-92
2021/04/17 00:59:37;;;;;;;3.83;1.42;;;4.90;99.90;;;;;;4978261;28;20104;-90
2021/04/17 01:02:03;;;;;;;13.23;2.28;;;4.90;99.90;;;;;;4995727;28;20077;-91
2021/04/17 01:04:35;;;;;;;6.40;1.80;;;4.90;99.90;;;;;;4979217;28;20073;-91
2021/04/17 01:07:24;;;;;;;14.18;1.45;;;4.90;99.90;;;;;;4995998;28;20452;-92
2021/04/17 01:10:07;;;;;;;9.32;1.95;;;5.00;99.90;;;;;;4979397;28;20053;-91
2021/04/17 01:12:48;;;;;;;10.63;1.92;;;5.00;99.90;;;;;;4992132;28;20043;-91
2021/04/17 01:15:18;;;;;;;6.30;1.52;;;5.00;99.90;;;;;;4960411;28;20054;-92
2021/04/17 01:17:52;;;;;;;8.43;2.70;;;5.10;99.90;;;;;;4973940;28;20084;-92
2021/04/17 01:20:32;;;;;;;10.90;2.05;;;5.10;99.90;;;;;;4971167;28;20915;-92
2021/04/17 01:23:01;;;;;;;11.82;2.15;;;5.10;99.90;;;;;;4982281;28;20046;-93
2021/04/17 01:25:30;;;;;;;7.63;1.67;;;5.10;99.90;;;;;;4984143;28;20046;-92
2021/04/17 01:27:59;;;;;;;12.88;2.30;;;5.20;99.90;;;;;;4990339;28;20129;-92
2021/04/17 01:30:25;;;;;;;8.10;2.13;;;5.20;99.90;;;;;;4985894;28;20046;-94
2021/04/17 01:32:52;;;;;;;8.48;1.50;;;5.30;99.90;;;;;;4982089;28;20105;-91
2021/04/17 01:35:20;;;;;;;9.23;1.90;;;5.30;99.90;;;;;;4996077;28;20129;-94
2021/04/17 01:37:52;;;;;;;13.82;1.88;;;5.30;99.90;;;;;;4965276;28;20062;-93
2021/04/17 01:40:22;;;;;;;13.32;1.75;;;5.30;99.90;;;;;;4992827;28;20046;-92
2021/04/17 01:42:50;;;;;;;10.93;1.83;;;5.40;99.90;;;;;;4965728;28;20082;-92
2021/04/17 01:45:20;;;;;;;13.63;2.05;;;5.40;99.90;;;;;;4982460;28;20046;-92
2021/04/17 01:47:49;;;;;;;16.45;1.77;;;5.40;99.90;;;;;;4966396;28;20054;-93
2021/04/17 01:50:17;;;;;;;14.88;2.42;;;5.40;99.90;;;;;;4995317;28;20076;-92
2021/04/17 01:52:46;;;;;;;7.45;1.55;;;5.40;99.90;;;;;;4967036;28;20053;-92
2021/04/17 01:55:15;;;;;;;11.55;1.88;;;5.40;99.90;;;;;;4993251;28;20053;-92
2021/04/17 01:57:43;;;;;;;15.68;2.05;;;5.30;99.90;;;;;;4994819;28;20133;-93
2021/04/17 02:00:12;;;;;;;11.00;1.58;;;5.40;99.90;;;;;;4981626;28;20068;-92
2021/04/17 02:02:38;;;;;;;9.43;2.53;;;5.30;99.90;;;;;;4985149;28;20062;-92
2021/04/17 02:05:04;;;;;;;10.82;1.70;;;5.30;99.90;;;;;;4994397;28;20034;-91
2021/04/17 02:07:30;;;;;;;16.90;2.50;;;5.30;99.90;;;;;;4986502;28;20109;-91
2021/04/17 02:09:56;;;;;;;19.60;2.22;;;5.30;99.90;;;;;;5005479;28;20436;-92
2021/04/17 02:12:22;;;;;;;5.60;1.33;;;5.30;99.90;;;;;;5011781;28;20409;-92
2021/04/17 02:14:48;;;;;;;16.17;2.83;;;5.30;99.90;;;;;;4994536;28;20056;-92
2021/04/17 02:17:20;;;;;;;20.77;2.53;;;5.30;99.90;;;;;;4978917;28;20064;-93
2021/04/17 02:20:13;;;;;;;6.60;1.60;;;5.30;99.90;;;;;;4964986;28;20041;-94
2021/04/17 02:22:42;;;;;;;12.85;2.10;;;5.30;99.90;;;;;;4964546;28;20078;-93
2021/04/17 02:25:09;;;;;;;12.13;2.13;;;5.40;99.90;;;;;;4986059;28;20050;-93
2021/04/17 02:27:47;;;;;;;14.18;2.83;;;5.40;99.90;;;;;;4972708;28;20478;-94
2021/04/17 02:30:54;;;;;;;;;;;;;;;;;;;;;
2021/04/17 02:33:48;;;;;;;28.50;3.08;;;5.40;99.90;;;;;;4973453;28;20379;-93
2021/04/17 02:36:14;;;;;;;17.67;2.60;;;5.40;99.90;;;;;;4988966;28;20049;-94
2021/04/17 02:38:42;;;;;;;23.60;2.60;;;5.40;99.90;;;;;;4962893;28;20065;-92
2021/04/17 02:42:01;;;;;;;;;;;;;;;;;;;;;
2021/04/17 02:44:46;;;;;;;14.13;2.30;;;5.40;99.90;;;;;;4985073;28;20061;-92
2021/04/17 02:47:14;;;;;;;21.33;2.88;;;5.40;99.90;;;;;;4963595;28;20050;-92
2021/04/17 02:49:53;;;;;;;24.75;3.67;;;5.30;99.90;;;;;;4958914;28;20081;-92
2021/04/17 02:52:22;;;;;;;16.35;3.13;;;5.40;99.90;;;;;;4974284;28;20050;-93
2021/04/17 02:54:48;;;;;;;23.92;3.70;;;5.30;99.90;;;;;;4954227;28;20051;-92
2021/04/17 02:57:17;;;;;;;17.38;3.20;;;5.40;99.90;;;;;;4987003;28;20050;-92
2021/04/17 02:59:43;;;;;;;21.20;2.85;;;5.40;99.90;;;;;;4976944;28;20049;-92
2021/04/17 03:02:09;;;;;;;21.98;2.83;;;5.40;99.90;;;;;;4974063;28;20042;-91
2021/04/17 03:04:35;;;;;;;20.27;2.63;;;5.50;99.90;;;;;;4963320;28;20054;-93
2021/04/17 03:07:01;;;;;;;28.00;3.78;;;5.70;99.90;;;;;;4958730;28;20746;-92
2021/04/17 03:09:29;;;;;;;11.35;2.40;;;5.50;99.90;;;;;;4955149;28;20046;-92
2021/04/17 03:12:07;;;;;;;15.75;2.60;;;5.60;99.90;;;;;;4974760;28;20049;-92
2021/04/17 03:14:33;;;;;;;11.02;2.88;;;5.50;99.90;;;;;;4954115;28;20569;-92
2021/04/17 03:16:59;;;;;;;19.25;3.05;;;5.50;99.90;;;;;;4971273;28;20047;-92
2021/04/17 03:19:25;;;;;;;17.98;3.25;;;5.60;99.90;;;;;;4984316;28;20475;-92
2021/04/17 03:21:50;;;;;;;17.50;3.60;;;5.50;99.90;;;;;;4956938;28;20054;-92
2021/04/17 03:24:16;;;;;;;27.30;3.72;;;5.50;99.90;;;;;;4984267;28;20117;-91
2021/04/17 03:26:42;;;;;;;25.63;4.20;;;5.50;99.90;;;;;;4970412;28;20379;-91
2021/04/17 03:29:08;;;;;;;28.67;4.93;;;5.60;99.90;;;;;;4951908;28;20050;-89
2021/04/17 03:31:37;;;;;;;17.27;3.70;;;5.50;99.90;;;;;;4973659;28;20050;-92
2021/04/17 03:34:03;;;;;;;29.13;3.88;;;5.40;99.90;;;;;;4971032;28;20050;-92
2021/04/17 03:36:29;;;;;;;29.95;3.75;;;5.40;99.90;;;;;;4944988;28;20050;-92
2021/04/17 03:38:55;;;;;;;25.95;3.70;;;5.50;99.90;;;;;;4973057;28;20453;-90
2021/04/17 03:41:23;;;;;;;35.50;4.63;;;5.40;99.90;;;;;;4988949;28;20042;-91
2021/04/17 03:43:49;;;;;;;25.10;2.63;;;5.30;99.90;;;;;;4989881;28;20062;-93
2021/04/17 03:46:20;;;;;;;35.10;3.95;;;5.30;99.90;;;;;;4973006;28;20065;-93
2021/04/17 03:48:51;;;;;;;27.60;3.78;;;5.30;99.90;;;;;;4989604;28;20884;-92
2021/04/17 03:51:23;;;;;;;24.70;3.67;;;5.20;99.90;;;;;;4970691;28;20046;-93
2021/04/17 03:53:49;;;;;;;25.33;3.83;;;5.30;99.90;;;;;;4988835;28;20161;-93
2021/04/17 03:56:15;;;;;;;25.40;3.92;;;5.30;99.90;;;;;;4973054;28;20050;-93
2021/04/17 03:58:41;;;;;;;24.13;3.95;;;5.30;99.90;;;;;;4971758;28;20524;-93
2021/04/17 04:01:08;;;;;;;25.05;3.33;;;5.30;99.90;;;;;;4973270;28;20062;-93
2021/04/17 04:03:34;;;;;;;17.70;3.35;;;5.30;99.90;;;;;;4974300;28;20050;-94
2021/04/17 04:06:00;;;;;;;29.67;5.57;;;5.30;99.90;;;;;;4992501;28;20453;-93
2021/04/17 04:08:26;;;;;;;22.65;3.63;;;5.30;99.90;;;;;;4993703;28;20042;-92
2021/04/17 04:10:52;;;;;;;32.13;3.83;;;5.30;99.90;;;;;;4990280;28;20635;-93
2021/04/17 04:13:21;;;;;;;21.80;3.90;;;5.30;99.90;;;;;;4961570;28;20399;-94
2021/04/17 04:15:47;;;;;;;21.92;3.10;;;5.30;99.90;;;;;;4975709;28;20097;-92
2021/04/17 04:18:15;;;;;;;34.03;5.78;;;5.30;99.90;;;;;;4993123;28;20039;-90
2021/04/17 04:20:42;;;;;;;26.77;6.03;;;5.40;99.90;;;;;;4978954;28;20046;-91
2021/04/17 04:23:08;;;;;;;29.70;4.25;;;5.30;99.90;;;;;;5003454;28;20074;-93
2021/04/17 04:25:34;;;;;;;22.23;3.42;;;5.30;99.90;;;;;;4993368;28;20081;-91
2021/04/17 04:28:00;;;;;;;14.85;3.55;;;5.20;99.90;;;;;;4975761;28;20053;-93
2021/04/17 04:30:28;;;;;;;15.80;2.97;;;5.30;99.90;;;;;;4958328;28;20051;-92
2021/04/17 04:32:54;;;;;;;19.02;3.97;;;5.60;99.90;;;;;;4978496;28;20043;-93
2021/04/17 04:35:20;;;;;;;8.68;1.02;;;5.40;99.90;;;;;;4994904;28;20034;-92
2021/04/17 04:37:46;;;;;;;24.70;4.20;;;5.60;99.90;;;;;;4975930;28;20042;-92
2021/04/17 04:40:12;;;;;;;30.55;4.47;;;5.30;99.90;;;;;;4996455;28;20048;-91
2021/04/17 04:42:38;;;;;;;21.17;3.88;;;5.40;99.90;;;;;;4996025;28;20517;-92
2021/04/17 04:45:07;;;;;;;30.58;4.70;;;5.30;99.90;;;;;;4991679;28;20042;-91
2021/04/17 04:47:34;;;;;;;16.25;2.67;;;5.40;99.90;;;;;;5005388;28;20038;-92
2021/04/17 04:50:00;;;;;;;20.63;5.60;;;5.60;99.90;;;;;;4996317;28;20044;-92
2021/04/17 04:52:26;;;;;;;25.58;4.63;;;5.40;99.90;;;;;;4980245;28;20065;-92
2021/04/17 04:54:52;;;;;;;23.73;3.80;;;5.30;99.90;;;;;;4995971;28;20073;-92
2021/04/17 04:57:18;;;;;;;15.15;2.90;;;6.00;99.90;;;;;;5006423;28;20440;-91
2021/04/17 04:59:44;;;;;;;23.83;4.00;;;5.50;99.90;;;;;;4973396;28;20517;-92
2021/04/17 05:02:10;;;;;;;21.00;3.90;;;5.40;99.90;;;;;;4964412;28;20081;-92
2021/04/17 05:04:36;;;;;;;33.03;5.50;;;5.40;99.90;;;;;;4996036;28;20125;-94
2021/04/17 05:07:02;;;;;;;10.90;2.85;;;5.40;99.90;;;;;;4963847;28;20136;-92
2021/04/17 05:09:29;;;;;;;29.58;4.35;;;5.40;99.90;;;;;;4980118;28;20070;-92
2021/04/17 05:12:06;;;;;;;25.65;5.07;;;5.40;99.90;;;;;;4984198;28;20034;-92
2021/04/17 05:14:31;;;;;;;18.88;4.38;;;5.40;99.90;;;;;;4991269;28;20047;-92
2021/04/17 05:16:57;;;;;;;33.03;6.70;;;5.40;99.90;;;;;;4986046;28;20045;-93
2021/04/17 05:19:25;;;;;;;31.52;4.82;;;5.40;99.90;;;;;;4979563;28;20056;-91
2021/04/17 05:21:51;;;;;;;23.75;4.65;;;5.40;99.90;;;;;;4975980;28;20042;-91
2021/04/17 05:24:17;;;;;;;27.42;4.68;;;5.50;99.90;;;;;;4977446;28;20045;-91
2021/04/17 05:26:43;;;;;;;20.35;3.75;;;5.50;99.90;;;;;;5004901;28;20047;-91
2021/04/17 05:29:09;;;;;;;17.30;3.97;;;5.50;99.90;;;;;;4973416;28;20092;-91
2021/04/17 05:31:35;;;;;;;29.13;4.95;;;5.50;99.90;;;;;;4981804;28;20046;-91
2021/04/17 05:34:05;;;;;;;22.58;5.00;;;5.70;99.90;;;;;;5004089;28;20050;-92
2021/04/17 05:36:32;;;;;;;29.55;4.72;;;5.50;99.90;;;;;;4991094;28;20060;-92
2021/04/17 05:38:58;;;;;;;22.52;4.53;;;5.50;99.90;;;;;;4985326;28;20853;-92
2021/04/17 05:41:28;;;;;;;21.42;3.78;;;5.60;99.90;;;;;;4994376;28;20529;-91
2021/04/17 05:43:54;;;;;;;12.93;2.85;;;5.60;99.90;;;;;;4974754;28;20050;-92
2021/04/17 05:46:20;;;;;;;26.02;3.72;;;5.80;99.90;;;;;;4960554;28;20054;-90
2021/04/17 05:48:46;;;;;;;19.17;5.05;;;5.70;99.90;;;;;;4987407;28;20093;-90
2021/04/17 05:51:12;;;;;;;29.83;4.28;;;5.70;99.90;;;;;;5003848;28;20050;-91
2021/04/17 05:53:38;;;;;;;25.65;3.90;;;5.70;99.90;;;;;;4994803;28;20049;-92
2021/04/17 05:56:05;;;;;;;21.02;3.80;;;5.70;99.90;;;;;;4969661;28;20494;-91
2021/04/17 05:58:30;;;;;;;11.38;3.47;;;5.80;99.90;;;;;;4990893;28;20585;-90
2021/04/17 06:00:57;;;;;;;27.45;4.65;;;5.80;99.90;;;;;;4983717;28;20058;-91
2021/04/17 06:03:23;;;;;;;18.17;4.28;;;5.90;99.90;;;;;;4977058;28;20052;-92
2021/04/17 06:05:49;;;;;;;18.30;2.97;;;5.90;99.90;;;;;;4974467;28;20560;-92
2021/04/17 06:08:18;;;;;;;24.73;5.47;;;5.90;99.90;;;;;;4976123;28;20132;-93
2021/04/17 06:10:44;;;;;;;25.20;4.22;;;6.00;99.90;;;;;;4978485;28;20144;-92
2021/04/17 06:13:15;;;;;;;21.02;4.18;;;6.20;99.90;;;;;;5001756;28;20164;-92
2021/04/17 06:16:16;;;;;;;;;;;;;;;;;;;;;
2021/04/17 06:19:12;;;;;;;11.93;2.60;;;6.10;99.90;;;;;;4944558;29;20176;-93
2021/04/17 06:21:38;;;;;;;29.67;4.65;;;6.10;99.90;;;;;;4923628;29;20051;-94
2021/04/17 06:24:31;;;;;;;21.13;4.55;;;6.20;99.90;;;;;;4980971;28;20061;-92
2021/04/17 06:26:57;;;;;;;20.92;4.30;;;6.20;99.90;;;;;;4976060;28;20046;-92
2021/04/17 06:29:26;;;;;;;25.00;5.15;;;6.20;99.90;;;;;;4977678;28;20041;-91
2021/04/17 06:31:55;;;;;;;23.63;4.75;;;6.20;99.90;;;;;;4992385;28;20080;-92
2021/04/17 06:34:21;;;;;;;26.80;4.65;;;6.30;99.90;;;;;;4993508;28;20053;-91
2021/04/17 06:36:47;;;;;;;29.13;4.47;;;6.30;99.90;;;;;;4977669;28;20056;-92
2021/04/17 06:39:13;;;;;;;30.83;4.60;;;6.50;99.90;;;;;;4970990;28;20065;-92
2021/04/17 06:41:45;;;;;;;32.33;6.32;;;6.40;99.90;;;;;;4985811;28;20042;-92
2021/04/17 06:44:18;;;;;;;18.20;4.00;;;6.50;99.90;;;;;;4971838;28;20100;-93
2021/04/17 06:46:44;;;;;;;13.35;3.03;;;6.60;99.90;;;;;;4968850;28;20177;-93
2021/04/17 06:49:11;;;;;;;11.75;2.47;;;6.60;99.90;;;;;;4984033;28;20038;-91
2021/04/17 06:51:41;;;;;;;12.73;2.58;;;6.60;99.90;;;;;;4971287;28;20059;-91
2021/04/17 06:54:09;;;;;;;22.88;4.20;;;6.70;99.90;;;;;;4954986;28;20427;-91
2021/04/17 06:57:11;;;;;;;30.50;4.95;;;6.60;99.90;;;;;;4970175;28;20061;-92
2021/04/17 06:59:40;;;;;;;29.10;5.03;;;6.70;99.90;;;;;;4974707;28;20096;-92
2021/04/17 07:02:13;;;;;;;21.80;4.95;;;6.70;99.90;;;;;;4984008;28;20070;-92
2021/04/17 07:04:40;;;;;;;17.77;4.35;;;6.80;99.90;;;;;;4990617;28;20038;-93
2021/04/17 07:07:06;;;;;;;21.13;4.60;;;6.90;99.90;;;;;;4989509;28;20046;-93
2021/04/17 07:09:32;;;;;;;22.52;3.97;;;6.90;99.90;;;;;;4991593;28;20101;-92
2021/04/17 07:11:58;;;;;;;23.88;4.57;;;7.00;99.90;;;;;;4989466;28;20081;-91
2021/04/17 07:14:25;;;;;;;15.88;3.05;;;7.00;99.90;;;;;;4990744;28;20050;-92
2021/04/17 07:17:02;;;;;;;18.35;3.83;;;7.00;99.90;;;;;;4970179;28;20059;-92
2021/04/17 07:19:47;;;;;;;28.88;4.53;;;7.10;99.90;;;;;;4989309;28;20410;-91
2021/04/17 07:22:19;;;;;;;15.00;3.28;;;7.10;99.90;;;;;;4990406;28;20081;-91
2021/04/17 07:24:46;;;;;;;22.67;4.03;;;7.20;99.90;;;;;;4988772;28;20406;-91
2021/04/17 07:27:32;;;;;;;17.48;3.10;;;7.20;99.90;;;;;;4990035;28;20065;-92
2021/04/17 07:30:00;;;;;;;20.45;4.95;;;7.20;99.90;;;;;;4990160;28;20034;-92
2021/04/17 07:32:27;;;;;;;17.38;4.50;;;7.30;99.90;;;;;;4990301;28;20050;-93
2021/04/17 07:35:14;;;;;;;14.65;3.47;;;7.30;99.90;;;;;;4989696;28;20038;-92
2021/04/17 07:37:42;;;;;;;19.00;3.30;;;7.30;99.90;;;;;;4985476;28;20489;-93
2021/04/17 07:40:25;;;;;;;10.77;2.22;;;7.40;99.90;;;;;;4965777;28;20204;-92
2021/04/17 07:42:54;;;;;;;20.13;2.75;;;7.40;99.90;;;;;;4965589;28;20134;-92
2021/04/17 07:45:32;;;;;;;19.58;4.30;;;7.50;99.90;;;;;;4978025;28;20054;-94
2021/04/17 07:48:26;;;;;;;17.95;3.38;;;7.50;99.90;;;;;;4989070;28;20082;-93
2021/04/17 07:50:54;;;;;;;15.90;3.72;;;7.50;99.90;;;;;;4995024;28;20074;-93
2021/04/17 07:53:29;;;;;;;16.77;2.90;;;7.50;99.90;;;;;;4990282;28;20057;-94
2021/04/17 07:55:55;;;;;;;13.20;2.10;;;7.60;99.90;;;;;;4984559;28;20073;-93
2021/04/17 07:58:21;;;;;;;13.75;2.75;;;7.60;99.90;;;;;;4978381;28;20053;-93
2021/04/17 08:00:48;;;;;;;19.40;3.17;;;7.70;99.90;;;;;;4962177;28;20046;-93
2021/04/17 08:03:18;;;;;;;17.15;2.72;;;7.70;99.90;;;;;;4973769;28;20055;-94
2021/04/17 08:05:44;;;;;;;17.58;3.33;;;7.70;99.90;;;;;;4994707;28;20038;-91
2021/04/17 09:22:48;;;;;;;7.50;1.77;;;9.20;99.90;;;;;;4818220;29;20049;-95
2021/04/17 09:25:58;;;;;;;12.60;2.55;;;9.20;99.90;;;;;;4802504;29;20061;-95
2021/04/17 09:29:26;;;;;;;;;;;;;;;;;;;;;
2021/04/17 09:44:47;;;;;;;;;;;;;;;;;;;;;
2021/04/17 09:47:54;;;;;;;12.35;2.88;;;9.10;99.90;;;;;;4731897;30;19938;-93
2021/04/17 09:55:48;;;;;;;;;;;;;;;;;;;;;
2021/04/17 09:59:11;;;;;;;13.48;2.45;;;9.20;99.90;;;;;;4747568;30;20069;-95
2021/04/17 10:13:41;;;;;;;8.85;2.55;;;9.00;99.90;;;;;;4797599;29;20051;-94
2021/04/17 10:27:44;;;;;;;14.18;2.88;;;9.00;99.90;;;;;;4898641;28;20062;-94
2021/04/17 10:30:35;;;;;;;18.50;4.05;;;9.00;99.90;;;;;;4965968;28;20061;-93
2021/04/17 10:33:05;;;;;;;14.55;2.95;;;9.10;99.90;;;;;;4958435;28;20489;-94
2021/04/17 10:35:50;;;;;;;20.83;3.38;;;9.10;99.90;;;;;;4975034;28;20627;-93
2021/04/17 10:38:35;;;;;;;11.43;3.00;;;9.10;99.90;;;;;;4959306;28;20046;-92
2021/04/17 10:41:30;;;;;;;18.08;3.05;;;9.10;99.90;;;;;;4958741;28;20097;-93
2021/04/17 10:44:19;;;;;;;11.77;2.92;;;9.20;99.90;;;;;;4970560;28;20070;-92
2021/04/17 10:46:56;;;;;;;6.00;2.45;;;9.20;99.90;;;;;;4948543;28;20054;-93
2021/04/17 10:49:46;;;;;;;19.50;2.97;;;9.20;99.90;;;;;;4969897;28;20058;-93
2021/04/17 10:52:37;;;;;;;22.65;5.88;;;9.20;99.90;;;;;;4988500;28;20050;-92
2021/04/17 10:55:04;;;;;;;6.22;2.08;;;9.40;99.90;;;;;;4984565;28;20053;-94
2021/04/17 10:57:51;;;;;;;11.57;2.63;;;9.40;99.90;;;;;;4988747;28;20092;-93
2021/04/17 11:00:33;;;;;;;10.93;2.30;;;9.40;99.90;;;;;;5006562;28;20033;-93
2021/04/17 11:06:19;;;;;;;13.88;2.65;;;9.50;99.90;;;;;;4990066;28;20042;-93
2021/04/17 11:08:53;;;;;;;11.27;2.47;;;9.50;99.90;;;;;;4988194;28;20041;-92
2021/04/17 11:11:25;;;;;;;8.23;2.80;;;9.50;99.90;;;;;;4990891;28;20477;-93
2021/04/17 11:14:20;;;;;;;12.68;2.90;;;9.70;99.90;;;;;;4985057;28;20152;-92
2021/04/17 11:16:58;;;;;;;7.78;1.85;;;9.60;99.90;;;;;;5010809;28;20462;-92
2021/04/17 11:19:30;;;;;;;7.50;1.95;;;9.70;99.90;;;;;;4973645;28;20073;-92
2021/04/17 11:22:24;;;;;;;8.05;2.22;;;9.70;99.90;;;;;;4969688;28;20053;-93
2021/04/17 11:25:05;;;;;;;10.23;2.30;;;9.90;99.90;;;;;;4974598;28;20050;-92
2021/04/17 11:27:34;;;;;;;9.45;2.80;;;9.80;99.90;;;;;;4993068;28;20038;-93
2021/04/17 11:30:04;;;;;;;12.40;2.03;;;9.90;99.90;;;;;;4977553;28;20124;-93
2021/04/17 11:32:42;;;;;;;8.73;1.58;;;9.90;99.90;;;;;;4974108;28;20896;-92
2021/04/17 11:35:09;;;;;;;4.20;1.75;;;9.90;99.90;;;;;;4987144;28;20046;-91
2021/04/17 11:37:38;;;;;;;7.50;1.58;;;9.90;99.90;;;;;;4973302;28;20077;-93
2021/04/17 11:40:08;;;;;;;11.07;2.75;;;9.90;99.90;;;;;;4973594;28;20046;-94
2021/04/17 11:42:34;;;;;;;7.78;1.85;;;9.90;99.90;;;;;;4977077;28;20220;-92
2021/04/17 11:45:31;;;;;;;6.75;1.63;;;9.90;99.90;;;;;;4948511;28;21014;-95
2021/04/17 11:48:26;;;;;;;6.55;2.83;;;9.80;99.90;;;;;;4972178;28;20054;-93
2021/04/17 11:51:06;;;;;;;6.55;1.90;;;9.80;99.90;;;;;;4987877;28;20525;-95
2021/04/17 11:54:08;;;;;;;21.08;2.67;;;9.80;99.90;;;;;;4950246;28;20046;-95
2021/04/17 12:04:19;;;;;;;;;;;;;;;;;;;;;
2021/04/17 12:15:52;;;;;;;;;;;;;;;;;;;;;
2021/04/17 12:19:10;;;;;;;7.20;1.75;;;9.80;99.90;;;;;;4849170;29;20049;-93
2021/04/17 12:21:54;;;;;;;8.52;1.83;;;9.90;99.90;;;;;;4853448;29;20061;-95
2021/04/17 12:24:38;;;;;;;9.00;2.13;;;9.80;99.90;;;;;;4915678;29;20300;-94
2021/04/17 12:31:20;;;;;;;;;;;;;;;;;;;;;
2021/04/17 12:34:12;;;;;;;8.95;1.65;;;9.80;99.90;;;;;;4936102;28;20223;-95
2021/04/17 12:37:25;;;;;;;7.97;1.98;;;9.80;99.90;;;;;;4957981;28;20050;-94
2021/04/17 12:41:27;;;;;;;;;;;;;;;;;;;;;
2021/04/17 12:44:22;;;;;;;11.27;1.52;;;9.90;99.90;;;;;;4923937;28;20066;-94
2021/04/17 12:47:49;;;;;;;;;;;;;;;;;;;;;
2021/04/17 12:51:14;;;;;;;11.05;1.58;;;10.10;99.90;;;;;;5010754;28;20096;-95
2021/04/17 12:57:46;;;;;;;4.22;1.52;;;9.90;99.90;;;;;;4970502;28;20058;-96
2021/04/17 13:10:48;;;;;;;10.93;1.60;;;10.00;99.90;;;;;;4907789;29;20064;-96
2021/04/17 13:13:57;;;;;;;5.22;1.30;;;10.00;99.90;;;;;;4943327;28;20507;-95
2021/04/17 13:16:58;;;;;;;12.13;2.20;;;9.90;99.90;;;;;;4893576;29;20057;-95
2021/04/17 13:23:00;;;;;;;;;;;;;;;;;;;;;
2021/04/17 13:25:48;;;;;;;;;;;;;;;;;;;;;
2021/04/17 13:29:02;;;;;;;12.23;1.60;;;9.50;99.90;;;;;;4937991;29;20466;-95
2021/04/17 13:32:05;;;;;;;13.85;2.83;;;9.50;99.90;;;;;;4900665;29;20468;-95
2021/04/17 13:42:27;;;;;;;10.35;1.75;;;9.80;99.90;;;;;;4809693;29;20507;-94
2021/04/17 13:45:35;;;;;;;9.02;1.38;;;9.90;99.90;;;;;;4935889;28;20065;-94
2021/04/17 13:48:34;;;;;;;;;;;;;;;;;;;;;
2021/04/17 13:51:49;;;;;;;9.70;1.90;;;9.90;99.90;;;;;;4963804;28;20106;-93
2021/04/17 13:54:18;;;;;;;5.82;1.13;;;10.00;99.90;;;;;;4966903;28;20132;-95
2021/04/17 13:57:08;;;;;;;7.07;1.40;;;10.10;99.90;;;;;;4969951;28;20058;-94
2021/04/17 14:02:25;;;;;;;8.23;2.00;;;9.90;99.90;;;;;;4986652;28;20084;-95
2021/04/17 14:05:04;;;;;;;11.60;1.63;;;9.90;99.90;;;;;;4946400;28;20658;-95
2021/04/17 14:07:39;;;;;;;8.43;1.65;;;10.10;99.90;;;;;;4959893;28;20050;-93
2021/04/17 14:10:25;;;;;;;6.13;1.45;;;10.10;99.90;;;;;;4965159;28;20050;-95
2021/04/17 14:16:41;;;;;;;9.07;1.92;;;9.90;99.90;;;;;;4977765;28;20054;-96
2021/04/17 14:19:22;;;;;;;8.70;2.95;;;9.90;99.90;;;;;;4941786;28;20050;-93
2021/04/17 14:21:55;;;;;;;8.35;1.67;;;10.10;99.90;;;;;;4959348;28;20133;-95
2021/04/17 14:24:32;;;;;;;10.07;1.90;;;10.10;99.90;;;;;;4974577;28;20038;-93
2021/04/17 14:27:17;;;;;;;13.48;1.63;;;10.20;99.90;;;;;;4955662;28;20045;-95
2021/04/17 14:29:45;;;;;;;13.00;2.00;;;10.00;99.90;;;;;;4958949;28;20053;-95
2021/04/17 14:32:35;;;;;;;8.52;1.55;;;10.10;99.90;;;;;;4974927;28;20134;-95
2021/04/17 14:35:01;;;;;;;2.60;1.30;;;10.00;99.90;;;;;;4945911;28;20049;-95
2021/04/17 14:37:27;;;;;;;12.70;1.73;;;9.90;99.90;;;;;;4972080;28;20053;-95
2021/04/17 14:40:00;;;;;;;18.20;3.10;;;10.10;99.90;;;;;;4947247;28;20050;-95
2021/04/17 14:42:27;;;;;;;4.30;1.25;;;9.90;99.90;;;;;;4955316;28;20104;-95
2021/04/17 14:45:01;;;;;;;8.02;1.50;;;10.00;99.90;;;;;;4970373;28;20042;-95
2021/04/17 14:47:33;;;;;;;8.02;1.23;;;9.90;99.90;;;;;;4951458;28;20057;-94
2021/04/17 14:50:05;;;;;;;9.52;2.05;;;10.00;99.90;;;;;;4969257;28;20046;-95
2021/04/17 14:52:31;;;;;;;13.07;1.75;;;10.00;99.90;;;;;;4977649;28;20054;-94
2021/04/17 14:54:59;;;;;;;8.50;2.17;;;10.30;99.90;;;;;;4993226;28;20042;-95
2021/04/17 14:57:26;;;;;;;7.32;1.52;;;10.20;99.90;;;;;;4974753;28;20050;-95
2021/04/17 14:59:52;;;;;;;13.60;1.98;;;10.10;99.90;;;;;;4991967;28;20050;-94
2021/04/17 15:02:20;;;;;;;8.32;1.80;;;9.90;99.90;;;;;;4988644;28;20065;-94
2021/04/17 15:04:46;;;;;;;8.35;2.15;;;10.00;99.90;;;;;;5005243;28;20076;-94
2021/04/17 15:07:13;;;;;;;9.90;1.83;;;10.10;99.90;;;;;;5008882;28;20042;-94
2021/04/17 15:10:15;;;;;;;7.68;2.17;;;10.10;99.90;;;;;;4975611;28;20104;-95
2021/04/17 15:16:30;;;;;;;8.85;1.88;;;10.10;99.90;;;;;;4925336;28;20510;-92
2021/04/17 15:19:05;;;;;;;13.15;2.58;;;10.20;99.90;;;;;;5000739;28;20042;-94
2021/04/17 15:30:02;;;;;;;;;;;;;;;;;;;;;
2021/04/17 15:33:03;;;;;;;9.70;1.67;;;10.30;99.90;;;;;;4909604;29;20119;-93
2021/04/17 15:54:57;;;;;;;10.52;2.42;;;10.20;99.90;;;;;;4736908;30;20521;-95
2021/04/17 16:15:17;;;;;;;;;;;;;;;;;;;;;
2021/04/17 16:18:17;;;;;;;9.82;2.28;;;10.10;99.90;;;;;;4792826;29;20125;-95
2021/04/17 16:25:30;;;;;;;10.82;2.25;;;10.10;99.90;;;;;;4768653;30;20051;-95
2021/04/17 16:27:56;;;;;;;10.27;2.83;;;10.20;99.90;;;;;;4837631;29;20084;-93
2021/04/17 16:30:25;;;;;;;10.40;2.20;;;10.20;99.90;;;;;;4907478;29;21009;-95
2021/04/17 16:32:54;;;;;;;12.02;2.70;;;10.20;99.90;;;;;;4894111;29;20051;-91
2021/04/17 16:35:27;;;;;;;14.68;2.28;;;10.10;99.90;;;;;;4972330;28;20081;-94
2021/04/17 16:41:53;;;;;;;15.30;2.17;;;10.10;99.90;;;;;;4984499;28;20045;-94
2021/04/17 16:44:19;;;;;;;9.93;2.10;;;10.10;99.90;;;;;;4961081;28;20146;-93
2021/04/17 16:46:45;;;;;;;8.60;2.45;;;10.00;99.90;;;;;;4978389;28;20129;-94
2021/04/17 16:49:14;;;;;;;14.25;2.85;;;10.10;99.90;;;;;;4957552;28;20497;-93
2021/04/17 16:51:40;;;;;;;12.57;2.70;;;10.10;99.90;;;;;;4957094;28;20042;-95
2021/04/17 16:58:19;;;;;;;11.82;3.17;;;9.90;99.90;;;;;;4989459;28;20100;-95
2021/04/17 17:01:31;;;;;;;9.07;2.58;;;9.90;99.90;;;;;;4972966;28;20062;-96
2021/04/17 17:04:22;;;;;;;6.78;2.60;;;9.80;99.90;;;;;;4961989;28;20038;-95
2021/04/17 17:07:01;;;;;;;;;;;;;;;;;;;;;
2021/04/17 17:10:02;;;;;;;16.73;3.00;;;9.70;99.90;;;;;;4973994;28;20050;-95
2021/04/17 17:16:55;;;;;;;12.13;2.63;;;9.60;99.90;;;;;;4990674;28;20470;-94
2021/04/17 17:19:53;;;;;;;;;;;;;;;;;;;;;
2021/04/17 17:22:44;;;;;;;14.05;3.80;;;9.40;99.90;;;;;;4951671;28;20055;-96
2021/04/17 17:28:31;;;;;;;11.27;3.40;;;9.30;99.90;;;;;;4948631;28;20062;-94
2021/04/17 17:32:14;;;;;;;;;;;;;;;;;;;;;
2021/04/17 17:39:06;;;;;;;11.98;3.25;;;9.20;99.90;;;;;;4867046;29;20059;-95
2021/04/17 17:42:34;;;;;;;;;;;;;;;;;;;;;
2021/04/17 17:49:25;;;;;;;11.05;3.22;;;9.20;99.90;;;;;;4830840;29;20122;-95
2021/04/17 17:51:54;;;;;;;6.35;2.65;;;9.10;99.90;;;;;;4839868;29;20065;-95
2021/04/17 17:54:59;;;;;;;;;;;;;;;;;;;;;
2021/04/17 17:57:41;;;;;;;11.55;3.65;;;8.90;99.90;;;;;;4958153;28;20478;-95
2021/04/17 18:00:13;;;;;;;9.13;3.33;;;8.80;99.90;;;;;;4973211;28;20149;-94
2021/04/17 18:02:53;;;;;;;14.80;3.95;;;8.80;99.90;;;;;;4976351;28;20642;-95
2021/04/17 18:06:19;;;;;;;;;;;;;;;;;;;;;
2021/04/17 18:09:09;;;;;;;13.38;3.65;;;8.60;99.90;;;;;;4963150;28;20469;-94
2021/04/17 18:11:38;;;;;;;13.90;4.40;;;8.50;99.90;;;;;;4958012;28;20054;-96